sensor_id;sensor_type;location;lat;lon;timestamp;P1;durP1;ratioP1;P2;durP2;ratioP2
68633;SDS011;55625;47.072;22.192;2023-03-04T00:01:16;15.15;;;11.10;;
68633;SDS011;55625;47.072;22.192;2023-03-04T00:03:42;16.98;;;9.50;;
68633;SDS011;55625;47.072;22.192;2023-03-04T00:06:08;17.13;;;9.63;;
68633;SDS011;55625;47.072;22.192;2023-03-04T00:08:34;16.67;;;11.23;;
68633;SDS011;55625;47.072;22.192;2023-03-04T00:11:00;16.20;;;9.73;;
68633;SDS011;55625;47.072;22.192;2023-03-04T00:13:26;13.70;;;7.82;;
68633;SDS011;55625;47.072;22.192;2023-03-04T00:15:52;36.00;;;10.30;;
68633;SDS011;55625;47.072;22.192;2023-03-04T00:18:18;14.02;;;7.30;;
68633;SDS011;55625;47.072;22.192;2023-03-04T00:20:47;14.25;;;8.13;;
68633;SDS011;55625;47.072;22.192;2023-03-04T00:23:14;13.18;;;10.02;;
68633;SDS011;55625;47.072;22.192;2023-03-04T00:25:40;26.37;;;12.47;;
68633;SDS011;55625;47.072;22.192;2023-03-04T00:28:06;11.25;;;8.45;;
68633;SDS011;55625;47.072;22.192;2023-03-04T00:30:32;13.25;;;8.93;;
68633;SDS011;55625;47.072;22.192;2023-03-04T00:32:58;23.63;;;13.53;;
68633;SDS011;55625;47.072;22.192;2023-03-04T00:35:24;13.60;;;8.75;;
68633;SDS011;55625;47.072;22.192;2023-03-04T00:37:50;15.68;;;9.30;;
68633;SDS011;55625;47.072;22.192;2023-03-04T00:40:16;21.20;;;7.67;;
68633;SDS011;55625;47.072;22.192;2023-03-04T00:42:42;16.63;;;7.80;;
68633;SDS011;55625;47.072;22.192;2023-03-04T00:45:08;15.68;;;8.55;;
68633;SDS011;55625;47.072;22.192;2023-03-04T00:47:34;15.63;;;8.45;;
68633;SDS011;55625;47.072;22.192;2023-03-04T00:50:00;18.13;;;10.80;;
68633;SDS011;55625;47.072;22.192;2023-03-04T00:52:26;16.20;;;9.02;;
68633;SDS011;55625;47.072;22.192;2023-03-04T00:54:52;12.25;;;8.23;;
68633;SDS011;55625;47.072;22.192;2023-03-04T00:57:17;14.23;;;8.53;;
68633;SDS011;55625;47.072;22.192;2023-03-04T00:59:43;18.25;;;9.93;;
68633;SDS011;55625;47.072;22.192;2023-03-04T01:02:10;13.85;;;7.72;;
68633;SDS011;55625;47.072;22.192;2023-03-04T01:04:36;16.67;;;8.77;;
68633;SDS011;55625;47.072;22.192;2023-03-04T01:07:03;22.38;;;7.75;;
68633;SDS011;55625;47.072;22.192;2023-03-04T01:09:29;27.95;;;8.68;;
68633;SDS011;55625;47.072;22.192;2023-03-04T01:11:55;10.60;;;7.10;;
68633;SDS011;55625;47.072;22.192;2023-03-04T01:14:21;13.25;;;6.85;;
68633;SDS011;55625;47.072;22.192;2023-03-04T01:16:47;14.20;;;8.90;;
68633;SDS011;55625;47.072;22.192;2023-03-04T01:19:14;13.13;;;5.75;;
68633;SDS011;55625;47.072;22.192;2023-03-04T01:21:40;12.35;;;6.90;;
68633;SDS011;55625;47.072;22.192;2023-03-04T01:24:06;10.00;;;7.47;;
68633;SDS011;55625;47.072;22.192;2023-03-04T01:26:32;9.73;;;6.87;;
68633;SDS011;55625;47.072;22.192;2023-03-04T01:28:58;17.00;;;7.03;;
68633;SDS011;55625;47.072;22.192;2023-03-04T01:31:24;16.30;;;8.30;;
68633;SDS011;55625;47.072;22.192;2023-03-04T01:33:50;19.63;;;8.02;;
68633;SDS011;55625;47.072;22.192;2023-03-04T01:36:16;19.50;;;10.43;;
68633;SDS011;55625;47.072;22.192;2023-03-04T01:38:42;21.00;;;14.17;;
68633;SDS011;55625;47.072;22.192;2023-03-04T01:41:08;16.55;;;10.30;;
68633;SDS011;55625;47.072;22.192;2023-03-04T01:43:37;13.07;;;9.88;;
68633;SDS011;55625;47.072;22.192;2023-03-04T01:46:04;17.85;;;9.90;;
68633;SDS011;55625;47.072;22.192;2023-03-04T01:48:32;18.17;;;7.20;;
68633;SDS011;55625;47.072;22.192;2023-03-04T01:51:04;11.97;;;6.93;;
68633;SDS011;55625;47.072;22.192;2023-03-04T01:53:36;16.45;;;6.80;;
68633;SDS011;55625;47.072;22.192;2023-03-04T01:56:14;16.65;;;8.80;;
68633;SDS011;55625;47.072;22.192;2023-03-04T01:58:42;17.13;;;9.68;;
68633;SDS011;55625;47.072;22.192;2023-03-04T02:01:09;10.53;;;5.83;;
68633;SDS011;55625;47.072;22.192;2023-03-04T02:03:38;18.80;;;6.78;;
68633;SDS011;55625;47.072;22.192;2023-03-04T02:06:04;12.02;;;5.10;;
68633;SDS011;55625;47.072;22.192;2023-03-04T02:08:30;18.67;;;9.45;;
68633;SDS011;55625;47.072;22.192;2023-03-04T02:10:56;12.80;;;8.67;;
68633;SDS011;55625;47.072;22.192;2023-03-04T02:13:22;7.97;;;5.72;;
68633;SDS011;55625;47.072;22.192;2023-03-04T02:15:48;8.77;;;6.18;;
68633;SDS011;55625;47.072;22.192;2023-03-04T02:20:46;10.07;;;4.87;;
68633;SDS011;55625;47.072;22.192;2023-03-04T02:26:43;10.50;;;7.05;;
68633;SDS011;55625;47.072;22.192;2023-03-04T02:29:11;12.07;;;6.22;;
68633;SDS011;55625;47.072;22.192;2023-03-04T02:31:41;14.85;;;6.13;;
68633;SDS011;55625;47.072;22.192;2023-03-04T02:34:21;9.03;;;4.50;;
68633;SDS011;55625;47.072;22.192;2023-03-04T02:36:52;12.75;;;7.25;;
68633;SDS011;55625;47.072;22.192;2023-03-04T02:41:49;12.10;;;5.83;;
68633;SDS011;55625;47.072;22.192;2023-03-04T02:44:18;7.87;;;4.93;;
68633;SDS011;55625;47.072;22.192;2023-03-04T02:46:55;7.90;;;5.00;;
68633;SDS011;55625;47.072;22.192;2023-03-04T02:49:22;12.70;;;8.57;;
68633;SDS011;55625;47.072;22.192;2023-03-04T02:54:42;13.27;;;6.40;;
68633;SDS011;55625;47.072;22.192;2023-03-04T02:57:09;8.87;;;3.67;;
68633;SDS011;55625;47.072;22.192;2023-03-04T02:59:37;9.38;;;5.72;;
68633;SDS011;55625;47.072;22.192;2023-03-04T03:02:04;9.88;;;6.20;;
68633;SDS011;55625;47.072;22.192;2023-03-04T03:04:31;11.18;;;7.63;;
68633;SDS011;55625;47.072;22.192;2023-03-04T03:06:58;13.43;;;6.07;;
68633;SDS011;55625;47.072;22.192;2023-03-04T03:09:24;9.20;;;5.80;;
68633;SDS011;55625;47.072;22.192;2023-03-04T03:11:50;14.65;;;6.53;;
68633;SDS011;55625;47.072;22.192;2023-03-04T03:14:16;8.73;;;5.72;;
68633;SDS011;55625;47.072;22.192;2023-03-04T03:16:42;13.30;;;6.30;;
68633;SDS011;55625;47.072;22.192;2023-03-04T03:19:07;13.70;;;8.82;;
68633;SDS011;55625;47.072;22.192;2023-03-04T03:21:33;12.25;;;6.43;;
68633;SDS011;55625;47.072;22.192;2023-03-04T03:23:59;14.80;;;6.43;;
68633;SDS011;55625;47.072;22.192;2023-03-04T03:26:25;11.70;;;7.45;;
68633;SDS011;55625;47.072;22.192;2023-03-04T03:28:51;11.07;;;3.95;;
68633;SDS011;55625;47.072;22.192;2023-03-04T03:31:17;10.20;;;5.27;;
68633;SDS011;55625;47.072;22.192;2023-03-04T03:33:44;12.40;;;4.97;;
68633;SDS011;55625;47.072;22.192;2023-03-04T03:36:09;14.45;;;10.00;;
68633;SDS011;55625;47.072;22.192;2023-03-04T03:38:35;12.90;;;5.43;;
68633;SDS011;55625;47.072;22.192;2023-03-04T03:41:01;7.70;;;4.85;;
68633;SDS011;55625;47.072;22.192;2023-03-04T03:43:27;15.57;;;7.87;;
68633;SDS011;55625;47.072;22.192;2023-03-04T03:45:53;11.68;;;8.10;;
68633;SDS011;55625;47.072;22.192;2023-03-04T03:48:19;15.18;;;5.25;;
68633;SDS011;55625;47.072;22.192;2023-03-04T03:50:45;11.63;;;5.93;;
68633;SDS011;55625;47.072;22.192;2023-03-04T03:53:11;10.02;;;7.07;;
68633;SDS011;55625;47.072;22.192;2023-03-04T03:55:36;11.23;;;6.38;;
68633;SDS011;55625;47.072;22.192;2023-03-04T03:58:03;12.37;;;6.50;;
68633;SDS011;55625;47.072;22.192;2023-03-04T04:00:29;16.65;;;5.47;;
68633;SDS011;55625;47.072;22.192;2023-03-04T04:02:55;9.95;;;6.90;;
68633;SDS011;55625;47.072;22.192;2023-03-04T04:05:23;12.77;;;6.95;;
68633;SDS011;55625;47.072;22.192;2023-03-04T04:07:49;10.35;;;4.70;;
68633;SDS011;55625;47.072;22.192;2023-03-04T04:10:15;13.03;;;6.33;;
68633;SDS011;55625;47.072;22.192;2023-03-04T04:12:41;9.50;;;5.93;;
68633;SDS011;55625;47.072;22.192;2023-03-04T04:15:09;8.88;;;5.00;;
68633;SDS011;55625;47.072;22.192;2023-03-04T04:17:36;11.77;;;7.50;;
68633;SDS011;55625;47.072;22.192;2023-03-04T04:20:02;14.02;;;7.53;;
68633;SDS011;55625;47.072;22.192;2023-03-04T04:22:30;10.77;;;6.57;;
68633;SDS011;55625;47.072;22.192;2023-03-04T04:24:56;10.40;;;5.90;;
68633;SDS011;55625;47.072;22.192;2023-03-04T04:27:21;8.57;;;5.00;;
68633;SDS011;55625;47.072;22.192;2023-03-04T04:29:47;9.02;;;5.28;;
68633;SDS011;55625;47.072;22.192;2023-03-04T04:32:13;6.78;;;4.57;;
68633;SDS011;55625;47.072;22.192;2023-03-04T04:34:39;9.67;;;7.30;;
68633;SDS011;55625;47.072;22.192;2023-03-04T04:37:05;10.95;;;6.00;;
68633;SDS011;55625;47.072;22.192;2023-03-04T04:39:31;8.73;;;5.57;;
68633;SDS011;55625;47.072;22.192;2023-03-04T04:41:56;6.87;;;5.03;;
68633;SDS011;55625;47.072;22.192;2023-03-04T04:44:22;8.55;;;6.50;;
68633;SDS011;55625;47.072;22.192;2023-03-04T04:46:48;10.68;;;6.80;;
68633;SDS011;55625;47.072;22.192;2023-03-04T04:49:14;13.83;;;7.57;;
68633;SDS011;55625;47.072;22.192;2023-03-04T04:51:40;8.45;;;4.43;;
68633;SDS011;55625;47.072;22.192;2023-03-04T04:54:06;7.50;;;6.00;;
68633;SDS011;55625;47.072;22.192;2023-03-04T04:56:32;8.90;;;5.60;;
68633;SDS011;55625;47.072;22.192;2023-03-04T04:58:59;14.15;;;7.68;;
68633;SDS011;55625;47.072;22.192;2023-03-04T05:01:28;9.60;;;6.50;;
68633;SDS011;55625;47.072;22.192;2023-03-04T05:03:54;8.65;;;5.65;;
68633;SDS011;55625;47.072;22.192;2023-03-04T05:06:21;9.48;;;6.13;;
68633;SDS011;55625;47.072;22.192;2023-03-04T05:08:48;18.38;;;7.68;;
68633;SDS011;55625;47.072;22.192;2023-03-04T05:11:15;6.68;;;5.32;;
68633;SDS011;55625;47.072;22.192;2023-03-04T05:13:43;10.00;;;6.80;;
68633;SDS011;55625;47.072;22.192;2023-03-04T05:16:10;13.20;;;7.53;;
68633;SDS011;55625;47.072;22.192;2023-03-04T05:18:36;10.07;;;7.50;;
68633;SDS011;55625;47.072;22.192;2023-03-04T05:21:02;9.70;;;6.88;;
68633;SDS011;55625;47.072;22.192;2023-03-04T05:23:30;11.27;;;7.78;;
68633;SDS011;55625;47.072;22.192;2023-03-04T05:26:03;7.47;;;5.87;;
68633;SDS011;55625;47.072;22.192;2023-03-04T05:28:30;8.73;;;5.40;;
68633;SDS011;55625;47.072;22.192;2023-03-04T05:30:56;9.10;;;4.38;;
68633;SDS011;55625;47.072;22.192;2023-03-04T05:33:22;13.32;;;7.10;;
68633;SDS011;55625;47.072;22.192;2023-03-04T05:35:48;15.90;;;7.87;;
68633;SDS011;55625;47.072;22.192;2023-03-04T05:38:15;6.03;;;4.60;;
68633;SDS011;55625;47.072;22.192;2023-03-04T05:40:44;8.65;;;4.53;;
68633;SDS011;55625;47.072;22.192;2023-03-04T05:43:10;9.80;;;4.35;;
68633;SDS011;55625;47.072;22.192;2023-03-04T05:45:37;8.57;;;5.65;;
68633;SDS011;55625;47.072;22.192;2023-03-04T05:48:04;7.20;;;4.13;;
68633;SDS011;55625;47.072;22.192;2023-03-04T05:50:31;12.07;;;4.95;;
68633;SDS011;55625;47.072;22.192;2023-03-04T05:52:57;14.27;;;6.63;;
68633;SDS011;55625;47.072;22.192;2023-03-04T05:55:23;12.30;;;4.70;;
68633;SDS011;55625;47.072;22.192;2023-03-04T05:57:51;6.60;;;3.03;;
68633;SDS011;55625;47.072;22.192;2023-03-04T06:00:17;7.63;;;4.37;;
68633;SDS011;55625;47.072;22.192;2023-03-04T06:02:44;7.20;;;4.15;;
68633;SDS011;55625;47.072;22.192;2023-03-04T06:05:11;8.52;;;6.22;;
68633;SDS011;55625;47.072;22.192;2023-03-04T06:07:38;9.85;;;4.07;;
68633;SDS011;55625;47.072;22.192;2023-03-04T06:10:07;8.70;;;5.15;;
68633;SDS011;55625;47.072;22.192;2023-03-04T06:12:34;10.33;;;6.17;;
68633;SDS011;55625;47.072;22.192;2023-03-04T06:15:00;6.25;;;4.03;;
68633;SDS011;55625;47.072;22.192;2023-03-04T06:17:30;6.85;;;3.92;;
68633;SDS011;55625;47.072;22.192;2023-03-04T06:19:56;8.80;;;4.63;;
68633;SDS011;55625;47.072;22.192;2023-03-04T06:22:21;10.50;;;5.37;;
68633;SDS011;55625;47.072;22.192;2023-03-04T06:24:47;7.47;;;5.80;;
68633;SDS011;55625;47.072;22.192;2023-03-04T06:27:13;9.38;;;7.38;;
68633;SDS011;55625;47.072;22.192;2023-03-04T06:29:40;7.88;;;6.40;;
68633;SDS011;55625;47.072;22.192;2023-03-04T06:32:06;8.68;;;6.32;;
68633;SDS011;55625;47.072;22.192;2023-03-04T06:34:32;18.20;;;5.50;;
68633;SDS011;55625;47.072;22.192;2023-03-04T06:36:58;8.50;;;5.43;;
68633;SDS011;55625;47.072;22.192;2023-03-04T06:39:24;11.75;;;6.00;;
68633;SDS011;55625;47.072;22.192;2023-03-04T06:41:50;11.65;;;6.88;;
68633;SDS011;55625;47.072;22.192;2023-03-04T06:44:16;17.30;;;6.27;;
68633;SDS011;55625;47.072;22.192;2023-03-04T06:46:42;11.68;;;6.03;;
68633;SDS011;55625;47.072;22.192;2023-03-04T06:49:07;5.23;;;3.43;;
68633;SDS011;55625;47.072;22.192;2023-03-04T06:51:33;7.67;;;5.60;;
68633;SDS011;55625;47.072;22.192;2023-03-04T06:53:59;11.70;;;6.85;;
68633;SDS011;55625;47.072;22.192;2023-03-04T06:56:25;11.68;;;7.68;;
68633;SDS011;55625;47.072;22.192;2023-03-04T06:58:51;12.65;;;7.03;;
68633;SDS011;55625;47.072;22.192;2023-03-04T07:01:22;9.70;;;7.60;;
68633;SDS011;55625;47.072;22.192;2023-03-04T07:03:50;11.13;;;6.82;;
68633;SDS011;55625;47.072;22.192;2023-03-04T07:06:19;13.57;;;5.90;;
68633;SDS011;55625;47.072;22.192;2023-03-04T07:08:48;15.70;;;5.85;;
68633;SDS011;55625;47.072;22.192;2023-03-04T07:11:15;9.40;;;4.72;;
68633;SDS011;55625;47.072;22.192;2023-03-04T07:13:43;15.87;;;6.70;;
68633;SDS011;55625;47.072;22.192;2023-03-04T07:16:13;7.68;;;6.03;;
68633;SDS011;55625;47.072;22.192;2023-03-04T07:18:43;13.40;;;5.75;;
68633;SDS011;55625;47.072;22.192;2023-03-04T07:21:10;10.38;;;5.90;;
68633;SDS011;55625;47.072;22.192;2023-03-04T07:23:37;11.80;;;6.18;;
68633;SDS011;55625;47.072;22.192;2023-03-04T07:26:03;12.37;;;4.90;;
68633;SDS011;55625;47.072;22.192;2023-03-04T07:28:30;7.57;;;5.43;;
68633;SDS011;55625;47.072;22.192;2023-03-04T07:30:56;19.65;;;11.05;;
68633;SDS011;55625;47.072;22.192;2023-03-04T07:33:36;13.32;;;6.35;;
68633;SDS011;55625;47.072;22.192;2023-03-04T07:36:02;15.20;;;9.05;;
68633;SDS011;55625;47.072;22.192;2023-03-04T07:38:28;12.80;;;5.30;;
68633;SDS011;55625;47.072;22.192;2023-03-04T07:40:57;13.02;;;6.80;;
68633;SDS011;55625;47.072;22.192;2023-03-04T07:43:24;14.20;;;7.72;;
68633;SDS011;55625;47.072;22.192;2023-03-04T07:45:50;10.57;;;5.67;;
68633;SDS011;55625;47.072;22.192;2023-03-04T07:48:16;12.90;;;7.07;;
68633;SDS011;55625;47.072;22.192;2023-03-04T07:50:42;22.42;;;7.75;;
68633;SDS011;55625;47.072;22.192;2023-03-04T07:53:08;17.60;;;9.00;;
68633;SDS011;55625;47.072;22.192;2023-03-04T07:55:34;15.40;;;8.27;;
68633;SDS011;55625;47.072;22.192;2023-03-04T07:57:59;13.85;;;7.75;;
68633;SDS011;55625;47.072;22.192;2023-03-04T08:00:27;24.80;;;8.30;;
68633;SDS011;55625;47.072;22.192;2023-03-04T08:02:52;22.10;;;9.30;;
68633;SDS011;55625;47.072;22.192;2023-03-04T08:05:18;17.13;;;6.47;;
68633;SDS011;55625;47.072;22.192;2023-03-04T08:07:44;22.63;;;9.53;;
68633;SDS011;55625;47.072;22.192;2023-03-04T08:10:10;17.75;;;9.35;;
68633;SDS011;55625;47.072;22.192;2023-03-04T08:12:36;15.45;;;8.20;;
68633;SDS011;55625;47.072;22.192;2023-03-04T08:15:02;15.10;;;7.47;;
68633;SDS011;55625;47.072;22.192;2023-03-04T08:17:28;9.55;;;4.15;;
68633;SDS011;55625;47.072;22.192;2023-03-04T08:19:54;21.35;;;8.82;;
68633;SDS011;55625;47.072;22.192;2023-03-04T08:22:20;14.93;;;9.30;;
68633;SDS011;55625;47.072;22.192;2023-03-04T08:24:46;16.50;;;6.40;;
68633;SDS011;55625;47.072;22.192;2023-03-04T08:27:12;13.82;;;6.68;;
68633;SDS011;55625;47.072;22.192;2023-03-04T08:29:37;16.00;;;11.68;;
68633;SDS011;55625;47.072;22.192;2023-03-04T08:32:03;11.80;;;7.27;;
68633;SDS011;55625;47.072;22.192;2023-03-04T08:34:29;19.58;;;7.20;;
68633;SDS011;55625;47.072;22.192;2023-03-04T08:36:55;19.20;;;8.95;;
68633;SDS011;55625;47.072;22.192;2023-03-04T08:39:21;20.40;;;7.07;;
68633;SDS011;55625;47.072;22.192;2023-03-04T08:41:47;20.20;;;9.18;;
68633;SDS011;55625;47.072;22.192;2023-03-04T08:44:13;13.90;;;7.97;;
68633;SDS011;55625;47.072;22.192;2023-03-04T08:46:41;17.92;;;6.63;;
68633;SDS011;55625;47.072;22.192;2023-03-04T08:49:09;21.37;;;11.03;;
68633;SDS011;55625;47.072;22.192;2023-03-04T08:51:36;9.20;;;6.72;;
68633;SDS011;55625;47.072;22.192;2023-03-04T08:54:03;15.60;;;6.28;;
68633;SDS011;55625;47.072;22.192;2023-03-04T08:56:29;18.83;;;8.73;;
68633;SDS011;55625;47.072;22.192;2023-03-04T08:58:55;13.37;;;8.33;;
68633;SDS011;55625;47.072;22.192;2023-03-04T09:01:22;15.53;;;8.87;;
68633;SDS011;55625;47.072;22.192;2023-03-04T09:03:48;20.80;;;8.65;;
68633;SDS011;55625;47.072;22.192;2023-03-04T09:06:14;21.25;;;8.13;;
68633;SDS011;55625;47.072;22.192;2023-03-04T09:08:42;18.85;;;8.98;;
68633;SDS011;55625;47.072;22.192;2023-03-04T09:11:09;18.93;;;7.10;;
68633;SDS011;55625;47.072;22.192;2023-03-04T09:13:35;21.33;;;9.25;;
68633;SDS011;55625;47.072;22.192;2023-03-04T09:16:01;13.20;;;7.32;;
68633;SDS011;55625;47.072;22.192;2023-03-04T09:18:32;17.75;;;9.55;;
68633;SDS011;55625;47.072;22.192;2023-03-04T09:20:58;16.33;;;9.37;;
68633;SDS011;55625;47.072;22.192;2023-03-04T09:23:24;17.90;;;10.60;;
68633;SDS011;55625;47.072;22.192;2023-03-04T09:25:49;15.65;;;8.10;;
68633;SDS011;55625;47.072;22.192;2023-03-04T09:28:16;22.57;;;7.10;;
68633;SDS011;55625;47.072;22.192;2023-03-04T09:30:43;14.07;;;6.05;;
68633;SDS011;55625;47.072;22.192;2023-03-04T09:33:09;10.13;;;6.20;;
68633;SDS011;55625;47.072;22.192;2023-03-04T09:35:36;10.48;;;5.53;;
68633;SDS011;55625;47.072;22.192;2023-03-04T09:38:02;15.47;;;6.57;;
68633;SDS011;55625;47.072;22.192;2023-03-04T09:40:29;12.43;;;5.60;;
68633;SDS011;55625;47.072;22.192;2023-03-04T09:43:18;11.13;;;5.75;;
68633;SDS011;55625;47.072;22.192;2023-03-04T09:45:54;9.98;;;5.80;;
68633;SDS011;55625;47.072;22.192;2023-03-04T09:48:28;11.18;;;4.97;;
68633;SDS011;55625;47.072;22.192;2023-03-04T10:05:41;10.97;;;6.90;;
68633;SDS011;55625;47.072;22.192;2023-03-04T10:11:38;8.68;;;5.38;;
68633;SDS011;55625;47.072;22.192;2023-03-04T10:16:48;10.13;;;6.40;;
68633;SDS011;55625;47.072;22.192;2023-03-04T10:22:46;9.75;;;5.35;;
68633;SDS011;55625;47.072;22.192;2023-03-04T10:25:27;11.60;;;6.15;;
68633;SDS011;55625;47.072;22.192;2023-03-04T10:27:57;10.38;;;6.97;;
68633;SDS011;55625;47.072;22.192;2023-03-04T10:33:46;15.10;;;7.90;;
68633;SDS011;55625;47.072;22.192;2023-03-04T10:41:29;18.52;;;7.07;;
68633;SDS011;55625;47.072;22.192;2023-03-04T10:46:37;8.83;;;5.77;;
68633;SDS011;55625;47.072;22.192;2023-03-04T10:49:12;18.90;;;7.63;;
68633;SDS011;55625;47.072;22.192;2023-03-04T10:54:28;14.57;;;9.05;;
68633;SDS011;55625;47.072;22.192;2023-03-04T10:57:13;17.17;;;6.93;;
68633;SDS011;55625;47.072;22.192;2023-03-04T11:00:03;14.40;;;7.63;;
68633;SDS011;55625;47.072;22.192;2023-03-04T11:02:53;11.32;;;6.95;;
68633;SDS011;55625;47.072;22.192;2023-03-04T11:06:14;15.10;;;7.03;;
68633;SDS011;55625;47.072;22.192;2023-03-04T11:08:52;13.43;;;6.05;;
68633;SDS011;55625;47.072;22.192;2023-03-04T11:13:55;26.43;;;7.13;;
68633;SDS011;55625;47.072;22.192;2023-03-04T11:16:26;12.18;;;6.75;;
68633;SDS011;55625;47.072;22.192;2023-03-04T11:18:59;19.67;;;9.05;;
68633;SDS011;55625;47.072;22.192;2023-03-04T11:21:46;15.90;;;5.90;;
68633;SDS011;55625;47.072;22.192;2023-03-04T11:24:26;28.20;;;7.00;;
68633;SDS011;55625;47.072;22.192;2023-03-04T11:33:09;14.85;;;7.57;;
68633;SDS011;55625;47.072;22.192;2023-03-04T11:38:54;18.20;;;9.07;;
68633;SDS011;55625;47.072;22.192;2023-03-04T11:41:24;16.50;;;6.37;;
68633;SDS011;55625;47.072;22.192;2023-03-04T11:44:20;14.82;;;7.75;;
68633;SDS011;55625;47.072;22.192;2023-03-04T11:55:27;15.77;;;7.45;;
68633;SDS011;55625;47.072;22.192;2023-03-04T12:03:48;12.98;;;7.93;;
68633;SDS011;55625;47.072;22.192;2023-03-04T12:09:08;13.00;;;6.25;;
68633;SDS011;55625;47.072;22.192;2023-03-04T12:18:10;14.25;;;6.75;;
68633;SDS011;55625;47.072;22.192;2023-03-04T12:23:57;13.85;;;5.28;;
68633;SDS011;55625;47.072;22.192;2023-03-04T12:27:03;8.15;;;5.43;;
68633;SDS011;55625;47.072;22.192;2023-03-04T12:32:31;12.75;;;7.72;;
68633;SDS011;55625;47.072;22.192;2023-03-04T12:38:28;11.00;;;5.80;;
68633;SDS011;55625;47.072;22.192;2023-03-04T12:43:53;17.63;;;7.70;;
68633;SDS011;55625;47.072;22.192;2023-03-04T12:47:10;10.93;;;5.35;;
68633;SDS011;55625;47.072;22.192;2023-03-04T12:55:36;10.25;;;4.57;;
68633;SDS011;55625;47.072;22.192;2023-03-04T12:58:11;13.25;;;7.05;;
68633;SDS011;55625;47.072;22.192;2023-03-04T13:09:43;7.88;;;3.60;;
68633;SDS011;55625;47.072;22.192;2023-03-04T13:12:20;19.70;;;9.55;;
68633;SDS011;55625;47.072;22.192;2023-03-04T13:17:52;16.13;;;5.97;;
68633;SDS011;55625;47.072;22.192;2023-03-04T13:20:24;12.48;;;7.05;;
68633;SDS011;55625;47.072;22.192;2023-03-04T13:41:20;17.40;;;7.10;;
68633;SDS011;55625;47.072;22.192;2023-03-04T14:01:32;10.07;;;3.22;;
68633;SDS011;55625;47.072;22.192;2023-03-04T14:04:09;6.63;;;2.72;;
68633;SDS011;55625;47.072;22.192;2023-03-04T14:06:39;7.13;;;2.70;;
68633;SDS011;55625;47.072;22.192;2023-03-04T14:09:21;12.30;;;5.13;;
68633;SDS011;55625;47.072;22.192;2023-03-04T14:11:56;11.45;;;4.43;;
68633;SDS011;55625;47.072;22.192;2023-03-04T14:14:31;6.68;;;2.90;;
68633;SDS011;55625;47.072;22.192;2023-03-04T14:17:21;7.75;;;3.80;;
68633;SDS011;55625;47.072;22.192;2023-03-04T14:19:52;6.17;;;3.90;;
68633;SDS011;55625;47.072;22.192;2023-03-04T14:24:59;9.88;;;3.80;;
68633;SDS011;55625;47.072;22.192;2023-03-04T14:27:31;9.50;;;3.15;;
68633;SDS011;55625;47.072;22.192;2023-03-04T14:30:01;8.68;;;3.60;;
68633;SDS011;55625;47.072;22.192;2023-03-04T14:32:31;9.67;;;3.93;;
68633;SDS011;55625;47.072;22.192;2023-03-04T14:34:58;10.25;;;4.70;;
68633;SDS011;55625;47.072;22.192;2023-03-04T14:37:32;8.48;;;3.42;;
68633;SDS011;55625;47.072;22.192;2023-03-04T14:40:29;11.10;;;3.75;;
68633;SDS011;55625;47.072;22.192;2023-03-04T14:43:07;8.55;;;3.33;;
68633;SDS011;55625;47.072;22.192;2023-03-04T14:45:53;4.90;;;3.47;;
68633;SDS011;55625;47.072;22.192;2023-03-04T14:48:26;11.27;;;4.30;;
68633;SDS011;55625;47.072;22.192;2023-03-04T14:50:57;8.43;;;4.35;;
68633;SDS011;55625;47.072;22.192;2023-03-04T14:53:30;8.23;;;3.85;;
68633;SDS011;55625;47.072;22.192;2023-03-04T14:58:29;9.37;;;3.97;;
68633;SDS011;55625;47.072;22.192;2023-03-04T15:01:14;5.55;;;3.05;;
68633;SDS011;55625;47.072;22.192;2023-03-04T15:03:45;11.13;;;4.45;;
68633;SDS011;55625;47.072;22.192;2023-03-04T15:06:22;7.20;;;3.40;;
68633;SDS011;55625;47.072;22.192;2023-03-04T15:08:57;9.65;;;3.65;;
68633;SDS011;55625;47.072;22.192;2023-03-04T15:11:30;7.13;;;4.17;;
68633;SDS011;55625;47.072;22.192;2023-03-04T15:17:23;9.63;;;5.00;;
68633;SDS011;55625;47.072;22.192;2023-03-04T15:22:34;6.75;;;3.65;;
68633;SDS011;55625;47.072;22.192;2023-03-04T15:25:04;9.03;;;5.83;;
68633;SDS011;55625;47.072;22.192;2023-03-04T15:27:30;12.48;;;6.45;;
68633;SDS011;55625;47.072;22.192;2023-03-04T15:29:57;8.73;;;5.90;;
68633;SDS011;55625;47.072;22.192;2023-03-04T15:32:28;10.70;;;4.15;;
68633;SDS011;55625;47.072;22.192;2023-03-04T15:34:54;7.25;;;4.93;;
68633;SDS011;55625;47.072;22.192;2023-03-04T15:37:21;13.67;;;4.67;;
68633;SDS011;55625;47.072;22.192;2023-03-04T15:39:50;9.10;;;4.78;;
68633;SDS011;55625;47.072;22.192;2023-03-04T15:42:17;10.38;;;4.50;;
68633;SDS011;55625;47.072;22.192;2023-03-04T15:44:43;6.75;;;3.20;;
68633;SDS011;55625;47.072;22.192;2023-03-04T15:47:10;7.65;;;4.72;;
68633;SDS011;55625;47.072;22.192;2023-03-04T15:49:40;17.17;;;4.73;;
68633;SDS011;55625;47.072;22.192;2023-03-04T15:52:25;10.00;;;4.47;;
68633;SDS011;55625;47.072;22.192;2023-03-04T15:54:51;9.20;;;4.03;;
68633;SDS011;55625;47.072;22.192;2023-03-04T15:57:19;18.08;;;4.10;;
68633;SDS011;55625;47.072;22.192;2023-03-04T15:59:49;6.80;;;4.07;;
68633;SDS011;55625;47.072;22.192;2023-03-04T16:02:20;8.30;;;4.05;;
68633;SDS011;55625;47.072;22.192;2023-03-04T16:04:48;7.88;;;4.20;;
68633;SDS011;55625;47.072;22.192;2023-03-04T16:07:24;9.57;;;4.90;;
68633;SDS011;55625;47.072;22.192;2023-03-04T16:09:58;9.55;;;4.63;;
68633;SDS011;55625;47.072;22.192;2023-03-04T16:12:28;9.33;;;3.87;;
68633;SDS011;55625;47.072;22.192;2023-03-04T16:14:54;10.25;;;4.60;;
68633;SDS011;55625;47.072;22.192;2023-03-04T16:17:20;11.65;;;5.20;;
68633;SDS011;55625;47.072;22.192;2023-03-04T16:19:46;12.82;;;4.93;;
68633;SDS011;55625;47.072;22.192;2023-03-04T16:22:16;11.40;;;4.90;;
68633;SDS011;55625;47.072;22.192;2023-03-04T16:24:50;7.85;;;4.72;;
68633;SDS011;55625;47.072;22.192;2023-03-04T16:27:16;10.85;;;5.80;;
68633;SDS011;55625;47.072;22.192;2023-03-04T16:29:43;10.27;;;4.15;;
68633;SDS011;55625;47.072;22.192;2023-03-04T16:32:10;10.83;;;5.77;;
68633;SDS011;55625;47.072;22.192;2023-03-04T16:34:36;3.93;;;2.73;;
68633;SDS011;55625;47.072;22.192;2023-03-04T16:37:03;11.48;;;4.57;;
68633;SDS011;55625;47.072;22.192;2023-03-04T16:39:36;11.93;;;5.25;;
68633;SDS011;55625;47.072;22.192;2023-03-04T16:42:02;9.88;;;4.00;;
68633;SDS011;55625;47.072;22.192;2023-03-04T16:44:33;9.03;;;5.10;;
68633;SDS011;55625;47.072;22.192;2023-03-04T16:46:59;8.07;;;4.88;;
68633;SDS011;55625;47.072;22.192;2023-03-04T16:49:27;9.10;;;4.43;;
68633;SDS011;55625;47.072;22.192;2023-03-04T16:51:55;6.55;;;4.63;;
68633;SDS011;55625;47.072;22.192;2023-03-04T16:54:26;12.37;;;4.40;;
68633;SDS011;55625;47.072;22.192;2023-03-04T16:56:56;7.90;;;4.38;;
68633;SDS011;55625;47.072;22.192;2023-03-04T16:59:23;6.00;;;4.35;;
68633;SDS011;55625;47.072;22.192;2023-03-04T17:01:49;11.60;;;3.63;;
68633;SDS011;55625;47.072;22.192;2023-03-04T17:04:17;11.93;;;4.20;;
68633;SDS011;55625;47.072;22.192;2023-03-04T17:06:43;6.50;;;4.15;;
68633;SDS011;55625;47.072;22.192;2023-03-04T17:09:09;8.55;;;3.83;;
68633;SDS011;55625;47.072;22.192;2023-03-04T17:11:35;12.63;;;5.35;;
68633;SDS011;55625;47.072;22.192;2023-03-04T17:14:02;6.07;;;4.47;;
68633;SDS011;55625;47.072;22.192;2023-03-04T17:16:28;10.57;;;4.63;;
68633;SDS011;55625;47.072;22.192;2023-03-04T17:18:54;12.88;;;5.68;;